Time;durP1;ratioP1;P1;durP2;ratioP2;P2;SDS_P1;SDS_P2;PMS_P1;PMS_P2;Temp;Humidity;BMP_temperature;BMP_pressure;BME280_temperature;BME280_humidity;BME280_pressure;Samples;Min_cycle;Max_cycle;Signal;HPM_P1;HPM_P2
2022/10/26 00:00:44;;;;;;;3.30;0.55;;;;;;;;;;7387935;19;20137;-72
2022/10/26 00:03:09;;;;;;;1.48;1.05;;;;;;;;;;7384723;19;20603;-70
2022/10/26 00:05:34;;;;;;;0.30;0.30;;;;;;;;;;7377844;19;20163;-72
2022/10/26 00:08:01;;;;;;;0.32;0.32;;;;;;;;;;7376565;19;20145;-70
2022/10/26 00:10:26;;;;;;;0.30;0.30;;;;;;;;;;7376151;19;20121;-72
2022/10/26 00:12:51;;;;;;;0.50;0.50;;;;;;;;;;7389409;19;20136;-72
2022/10/26 00:15:18;;;;;;;0.40;0.40;;;;;;;;;;7381685;19;20168;-72
2022/10/26 00:17:43;;;;;;;0.32;0.32;;;;;;;;;;7389447;19;20217;-72
2022/10/26 00:20:09;;;;;;;0.30;0.30;;;;;;;;;;7389331;19;20523;-72
2022/10/26 00:22:34;;;;;;;0.82;0.82;;;;;;;;;;7386431;19;20665;-72
2022/10/26 00:25:00;;;;;;;0.40;0.40;;;;;;;;;;7386812;19;20162;-72
2022/10/26 00:27:25;;;;;;;0.30;0.30;;;;;;;;;;7397097;19;20196;-70
2022/10/26 00:29:50;;;;;;;0.30;0.30;;;;;;;;;;7395926;19;20144;-73
2022/10/26 00:32:15;;;;;;;0.38;0.38;;;;;;;;;;7393720;19;20145;-72
2022/10/26 00:34:41;;;;;;;0.30;0.30;;;;;;;;;;7394710;19;20161;-73
2022/10/26 00:37:06;;;;;;;0.30;0.30;;;;;;;;;;7391751;19;20148;-72
2022/10/26 00:39:31;;;;;;;0.30;0.30;;;;;;;;;;7392043;19;20531;-72
2022/10/26 00:41:56;;;;;;;0.30;0.30;;;;;;;;;;7374463;19;20121;-70
2022/10/26 00:44:44;;;;;;;0.77;0.77;;;;;;;;;;7387260;19;20149;-73
2022/10/26 00:47:11;;;;;;;0.30;0.30;;;;;;;;;;7389258;19;20234;-72
2022/10/26 00:49:37;;;;;;;0.30;0.30;;;;;;;;;;7381928;19;20127;-72
2022/10/26 00:52:03;;;;;;;0.30;0.30;;;;;;;;;;7380856;19;20125;-72
2022/10/26 00:54:28;;;;;;;0.40;0.40;;;;;;;;;;7388564;19;20480;-73
2022/10/26 00:56:54;;;;;;;0.40;0.40;;;;;;;;;;7387410;19;20481;-72
2022/10/26 00:59:20;;;;;;;0.30;0.30;;;;;;;;;;7373990;19;20129;-72
2022/10/26 01:01:46;;;;;;;0.30;0.30;;;;;;;;;;7380311;19;20209;-72
2022/10/26 01:04:13;;;;;;;0.38;0.32;;;;;;;;;;7373077;19;20566;-72
2022/10/26 01:06:40;;;;;;;0.30;0.30;;;;;;;;;;7377829;19;20168;-72
2022/10/26 01:09:05;;;;;;;0.38;0.38;;;;;;;;;;7376099;19;20133;-71
2022/10/26 01:11:31;;;;;;;0.30;0.30;;;;;;;;;;7380863;19;20658;-72
2022/10/26 01:13:57;;;;;;;0.30;0.30;;;;;;;;;;7380353;19;20133;-70
2022/10/26 01:16:35;;;;;;;0.30;0.30;;;;;;;;;;7377169;19;20174;-73
2022/10/26 01:19:27;;;;;;;0.57;0.57;;;;;;;;;;7380996;19;20607;-71
2022/10/26 01:22:19;;;;;;;0.30;0.30;;;;;;;;;;7378949;19;20125;-70
2022/10/26 01:25:03;;;;;;;0.40;0.40;;;;;;;;;;7370489;19;20151;-69
2022/10/26 01:27:39;;;;;;;0.20;0.20;;;;;;;;;;7379789;19;20161;-68
2022/10/26 01:30:33;;;;;;;0.40;0.40;;;;;;;;;;7370124;19;20514;-68
2022/10/26 01:32:58;;;;;;;0.50;0.50;;;;;;;;;;7382857;19;20682;-71
2022/10/26 01:35:30;;;;;;;0.40;0.40;;;;;;;;;;7378789;19;20153;-69
2022/10/26 01:38:10;;;;;;;0.30;0.30;;;;;;;;;;7370569;19;20165;-71
2022/10/26 01:40:40;;;;;;;0.30;0.30;;;;;;;;;;7381950;19;20148;-72
2022/10/26 01:43:07;;;;;;;0.30;0.30;;;;;;;;;;7382537;19;20181;-71
2022/10/26 01:45:33;;;;;;;0.70;0.70;;;;;;;;;;7384007;19;20182;-70
2022/10/26 01:48:00;;;;;;;0.30;0.30;;;;;;;;;;7386367;19;20635;-70
2022/10/26 01:50:26;;;;;;;0.68;0.68;;;;;;;;;;7382519;19;20129;-71
2022/10/26 01:52:52;;;;;;;0.40;0.40;;;;;;;;;;7386885;19;20478;-72
2022/10/26 01:55:44;;;;;;;0.50;0.50;;;;;;;;;;7388292;19;20248;-71
2022/10/26 01:58:19;;;;;;;0.30;0.30;;;;;;;;;;7388361;19;20145;-71
2022/10/26 02:00:54;;;;;;;0.45;0.45;;;;;;;;;;7387416;19;20176;-72
2022/10/26 02:03:30;;;;;;;0.28;0.28;;;;;;;;;;7389094;19;20204;-70
2022/10/26 02:06:18;;;;;;;0.40;0.40;;;;;;;;;;7385930;19;20160;-72
2022/10/26 02:09:22;;;;;;;0.50;0.50;;;;;;;;;;7393039;19;20125;-70
2022/10/26 02:11:50;;;;;;;0.40;0.40;;;;;;;;;;7394494;19;20136;-71
2022/10/26 02:14:30;;;;;;;0.50;0.50;;;;;;;;;;7395638;19;20170;-72
2022/10/26 02:17:00;;;;;;;0.30;0.30;;;;;;;;;;7394659;19;20486;-72
2022/10/26 02:19:41;;;;;;;0.30;0.30;;;;;;;;;;7395680;19;20579;-71
2022/10/26 02:22:18;;;;;;;0.43;0.43;;;;;;;;;;7394826;19;20157;-69
2022/10/26 02:24:45;;;;;;;0.40;0.40;;;;;;;;;;7394064;19;20145;-70
2022/10/26 02:27:16;;;;;;;0.30;0.30;;;;;;;;;;7394751;19;20137;-72
2022/10/26 02:29:42;;;;;;;0.30;0.30;;;;;;;;;;7395281;19;20125;-72
2022/10/26 02:32:08;;;;;;;0.77;0.77;;;;;;;;;;7394285;19;20180;-72
2022/10/26 02:34:36;;;;;;;0.30;0.30;;;;;;;;;;7395446;19;20141;-71
2022/10/26 02:37:03;;;;;;;0.35;0.35;;;;;;;;;;7394887;19;20133;-72
2022/10/26 02:39:32;;;;;;;0.30;0.30;;;;;;;;;;7396151;19;20128;-71
2022/10/26 02:42:00;;;;;;;0.35;0.35;;;;;;;;;;7393017;19;20517;-72
2022/10/26 02:44:26;;;;;;;0.43;0.43;;;;;;;;;;7393047;19;20599;-71
2022/10/26 02:46:53;;;;;;;0.52;0.52;;;;;;;;;;7393678;19;20149;-71
2022/10/26 02:49:18;;;;;;;0.30;0.30;;;;;;;;;;7393536;19;20218;-70
2022/10/26 02:51:48;;;;;;;0.30;0.30;;;;;;;;;;7392861;19;20577;-71
2022/10/26 02:54:25;;;;;;;0.40;0.35;;;;;;;;;;7394816;19;20148;-72
2022/10/26 02:56:55;;;;;;;6.65;1.05;;;;;;;;;;7393690;19;20132;-71
2022/10/26 02:59:22;;;;;;;0.30;0.30;;;;;;;;;;7394244;19;20137;-72
2022/10/26 03:01:50;;;;;;;0.50;0.50;;;;;;;;;;7393770;19;20121;-72
2022/10/26 03:04:15;;;;;;;0.70;0.70;;;;;;;;;;7392537;19;20128;-70
2022/10/26 03:06:40;;;;;;;1.70;1.05;;;;;;;;;;7391802;19;20153;-71
2022/10/26 03:09:05;;;;;;;0.35;0.35;;;;;;;;;;7391639;19;20117;-71
2022/10/26 03:11:31;;;;;;;0.40;0.40;;;;;;;;;;7393072;19;20663;-71
2022/10/26 03:13:56;;;;;;;0.50;0.50;;;;;;;;;;7394741;19;20196;-71
2022/10/26 03:16:21;;;;;;;1.15;1.08;;;;;;;;;;7391692;19;20144;-69
2022/10/26 03:18:47;;;;;;;1.25;1.15;;;;;;;;;;7392016;19;20113;-71
2022/10/26 03:21:12;;;;;;;0.43;0.43;;;;;;;;;;7392942;19;20527;-71
2022/10/26 03:23:37;;;;;;;0.70;0.70;;;;;;;;;;7390641;19;20117;-71
2022/10/26 03:26:02;;;;;;;0.50;0.50;;;;;;;;;;7389805;19;20149;-71
2022/10/26 03:28:28;;;;;;;0.52;0.40;;;;;;;;;;7390645;19;20132;-72
2022/10/26 03:30:53;;;;;;;0.93;0.63;;;;;;;;;;7392978;19;20125;-71
2022/10/26 03:33:19;;;;;;;0.40;0.40;;;;;;;;;;7393883;19;20161;-69
2022/10/26 03:35:44;;;;;;;0.73;0.73;;;;;;;;;;7392218;19;20145;-71
2022/10/26 03:38:09;;;;;;;0.30;0.30;;;;;;;;;;7395119;19;20232;-71
2022/10/26 03:40:35;;;;;;;0.80;0.80;;;;;;;;;;7392017;19;20128;-72
2022/10/26 03:43:00;;;;;;;0.75;0.75;;;;;;;;;;7392706;19;20129;-71
2022/10/26 03:45:26;;;;;;;0.30;0.30;;;;;;;;;;7391093;19;20153;-71
2022/10/26 03:47:52;;;;;;;0.40;0.40;;;;;;;;;;7392518;19;20121;-71
2022/10/26 03:50:19;;;;;;;0.40;0.40;;;;;;;;;;7390407;19;20121;-71
2022/10/26 03:52:46;;;;;;;0.50;0.50;;;;;;;;;;7389745;19;20121;-70
2022/10/26 03:55:11;;;;;;;0.68;0.68;;;;;;;;;;7389226;19;20156;-71
2022/10/26 03:57:44;;;;;;;0.63;0.63;;;;;;;;;;7390988;19;20133;-70
2022/10/26 04:00:11;;;;;;;0.40;0.40;;;;;;;;;;7391345;19;20124;-71
2022/10/26 04:02:36;;;;;;;0.30;0.30;;;;;;;;;;7392608;19;20580;-71
2022/10/26 04:05:05;;;;;;;0.40;0.40;;;;;;;;;;7391121;19;20201;-72
2022/10/26 04:07:30;;;;;;;0.50;0.50;;;;;;;;;;7382539;19;20157;-72
2022/10/26 04:09:55;;;;;;;0.85;0.85;;;;;;;;;;7388760;19;20136;-71
2022/10/26 04:12:21;;;;;;;0.30;0.30;;;;;;;;;;7393002;19;20125;-72
2022/10/26 04:14:46;;;;;;;0.30;0.30;;;;;;;;;;7390660;19;20162;-71
2022/10/26 04:17:11;;;;;;;0.30;0.30;;;;;;;;;;7391149;19;20208;-72
2022/10/26 04:19:37;;;;;;;0.30;0.30;;;;;;;;;;7392628;19;20156;-71
2022/10/26 04:22:02;;;;;;;0.30;0.30;;;;;;;;;;7391233;19;20140;-71
2022/10/26 04:24:27;;;;;;;0.30;0.30;;;;;;;;;;7386750;19;20678;-71
2022/10/26 04:26:53;;;;;;;0.30;0.30;;;;;;;;;;7385392;19;20201;-71
2022/10/26 04:29:18;;;;;;;0.30;0.30;;;;;;;;;;7388609;19;20152;-72
2022/10/26 04:31:43;;;;;;;0.30;0.30;;;;;;;;;;7388593;19;20157;-70
2022/10/26 04:34:09;;;;;;;0.30;0.30;;;;;;;;;;7393198;19;20504;-71
2022/10/26 04:36:34;;;;;;;0.30;0.30;;;;;;;;;;7388065;19;20165;-71
2022/10/26 04:39:00;;;;;;;0.30;0.30;;;;;;;;;;7390228;19;20129;-71
2022/10/26 04:41:25;;;;;;;0.47;0.47;;;;;;;;;;7389576;19;20132;-71
2022/10/26 04:43:50;;;;;;;0.32;0.32;;;;;;;;;;7392732;19;20125;-71
2022/10/26 04:46:15;;;;;;;0.30;0.30;;;;;;;;;;7390134;19;20488;-69
2022/10/26 04:48:41;;;;;;;0.50;0.50;;;;;;;;;;7390089;19;20132;-72
2022/10/26 04:51:06;;;;;;;0.55;0.55;;;;;;;;;;7390392;19;20146;-71
2022/10/26 04:53:32;;;;;;;0.30;0.30;;;;;;;;;;7390275;19;20152;-71
2022/10/26 04:56:01;;;;;;;0.77;0.77;;;;;;;;;;7390123;19;20228;-71
2022/10/26 04:58:27;;;;;;;0.50;0.50;;;;;;;;;;7391230;19;20125;-72
2022/10/26 05:00:52;;;;;;;0.60;0.60;;;;;;;;;;7388979;19;20208;-72
2022/10/26 05:03:18;;;;;;;0.30;0.30;;;;;;;;;;7390535;19;20129;-72
2022/10/26 05:05:43;;;;;;;0.30;0.30;;;;;;;;;;7387975;19;20180;-71
2022/10/26 05:08:08;;;;;;;0.30;0.30;;;;;;;;;;7390674;19;20599;-71
2022/10/26 05:10:34;;;;;;;0.30;0.30;;;;;;;;;;7390761;19;20502;-71
2022/10/26 05:13:00;;;;;;;0.77;0.77;;;;;;;;;;7387686;19;20156;-70
2022/10/26 05:15:26;;;;;;;0.30;0.30;;;;;;;;;;7385528;19;20601;-72
2022/10/26 05:18:04;;;;;;;0.30;0.30;;;;;;;;;;7369529;19;20133;-69
2022/10/26 05:20:31;;;;;;;0.25;0.25;;;;;;;;;;7381963;19;20131;-72
2022/10/26 05:22:58;;;;;;;0.30;0.30;;;;;;;;;;7384087;19;20168;-71
2022/10/26 05:25:24;;;;;;;0.30;0.30;;;;;;;;;;7383427;19;20652;-71
2022/10/26 05:27:49;;;;;;;0.30;0.30;;;;;;;;;;7374709;19;20137;-71
2022/10/26 05:30:15;;;;;;;0.30;0.30;;;;;;;;;;7387763;19;20150;-71
2022/10/26 05:32:40;;;;;;;0.30;0.30;;;;;;;;;;7385325;19;20132;-71
2022/10/26 05:35:06;;;;;;;0.30;0.30;;;;;;;;;;7388339;19;20216;-70
2022/10/26 05:37:31;;;;;;;0.45;0.45;;;;;;;;;;7390842;19;20137;-71
2022/10/26 05:39:56;;;;;;;0.30;0.30;;;;;;;;;;7388833;19;20618;-72
2022/10/26 05:42:21;;;;;;;0.20;0.20;;;;;;;;;;7392914;19;20227;-72
2022/10/26 05:44:47;;;;;;;0.30;0.30;;;;;;;;;;7394675;19;20209;-71
2022/10/26 05:47:12;;;;;;;0.30;0.30;;;;;;;;;;7396782;19;20113;-71
2022/10/26 05:49:37;;;;;;;0.30;0.30;;;;;;;;;;7397394;19;20560;-70
2022/10/26 05:52:03;;;;;;;0.30;0.30;;;;;;;;;;7396278;19;20133;-71
2022/10/26 05:54:28;;;;;;;0.30;0.30;;;;;;;;;;7394379;19;20184;-71
2022/10/26 05:56:54;;;;;;;0.30;0.30;;;;;;;;;;7397963;19;20137;-71
2022/10/26 05:59:20;;;;;;;0.30;0.30;;;;;;;;;;7396785;19;20192;-72
2022/10/26 06:01:51;;;;;;;0.30;0.30;;;;;;;;;;7396011;19;20175;-71
2022/10/26 06:04:37;;;;;;;0.30;0.30;;;;;;;;;;7394641;19;20149;-69
2022/10/26 06:07:13;;;;;;;0.30;0.30;;;;;;;;;;7395069;19;20995;-72
2022/10/26 06:09:39;;;;;;;0.30;0.30;;;;;;;;;;7392126;19;20628;-72
2022/10/26 06:12:06;;;;;;;0.38;0.38;;;;;;;;;;7393935;19;20152;-72
2022/10/26 06:14:32;;;;;;;0.30;0.30;;;;;;;;;;7385498;19;20125;-71
2022/10/26 06:17:15;;;;;;;0.30;0.30;;;;;;;;;;7394802;19;20148;-70
2022/10/26 06:19:46;;;;;;;0.30;0.30;;;;;;;;;;7394428;19;20184;-71
2022/10/26 06:22:30;;;;;;;0.20;0.20;;;;;;;;;;7389003;19;20166;-69
2022/10/26 06:25:04;;;;;;;0.30;0.30;;;;;;;;;;7392897;19;20592;-72
2022/10/26 06:27:55;;;;;;;0.40;0.40;;;;;;;;;;7395682;19;20132;-71
2022/10/26 06:30:22;;;;;;;0.30;0.30;;;;;;;;;;7393013;19;20147;-72
2022/10/26 06:32:48;;;;;;;0.30;0.30;;;;;;;;;;7394767;19;20163;-72
2022/10/26 06:35:23;;;;;;;0.30;0.30;;;;;;;;;;7385428;19;20177;-72
2022/10/26 06:37:48;;;;;;;0.30;0.30;;;;;;;;;;7391441;19;20133;-72
2022/10/26 06:40:15;;;;;;;0.30;0.30;;;;;;;;;;7391178;19;20125;-72
2022/10/26 06:42:41;;;;;;;0.40;0.40;;;;;;;;;;7394700;19;20149;-72
2022/10/26 06:45:11;;;;;;;0.30;0.30;;;;;;;;;;7393003;19;20513;-73
2022/10/26 06:47:42;;;;;;;0.30;0.30;;;;;;;;;;7394058;19;20161;-72
2022/10/26 06:50:26;;;;;;;0.20;0.20;;;;;;;;;;7393546;19;20663;-72
2022/10/26 06:53:29;;;;;;;0.30;0.30;;;;;;;;;;7394108;19;20148;-72
2022/10/26 06:55:57;;;;;;;0.30;0.30;;;;;;;;;;7393580;19;20151;-72
2022/10/26 06:58:26;;;;;;;0.30;0.30;;;;;;;;;;7394629;19;20178;-72
2022/10/26 07:00:53;;;;;;;0.30;0.30;;;;;;;;;;7392173;19;20157;-70
2022/10/26 07:03:18;;;;;;;0.30;0.30;;;;;;;;;;7394620;19;20125;-71
2022/10/26 07:05:44;;;;;;;0.40;0.40;;;;;;;;;;7393859;19;20624;-71
2022/10/26 07:08:10;;;;;;;0.30;0.30;;;;;;;;;;7393849;19;20540;-71
2022/10/26 07:10:38;;;;;;;0.30;0.30;;;;;;;;;;7392764;19;20128;-71
2022/10/26 07:13:07;;;;;;;0.22;0.22;;;;;;;;;;7389949;19;20136;-71
2022/10/26 07:15:33;;;;;;;0.30;0.30;;;;;;;;;;7391474;19;20172;-72
2022/10/26 07:17:59;;;;;;;0.30;0.30;;;;;;;;;;7390443;19;20129;-71
2022/10/26 07:20:24;;;;;;;0.30;0.30;;;;;;;;;;7387505;19;20133;-70
2022/10/26 07:22:54;;;;;;;0.43;0.43;;;;;;;;;;7374969;19;20133;-70
2022/10/26 07:25:20;;;;;;;0.30;0.30;;;;;;;;;;7380925;19;20157;-70
2022/10/26 07:27:45;;;;;;;0.30;0.30;;;;;;;;;;7364695;19;20537;-72
2022/10/26 07:30:11;;;;;;;0.40;0.40;;;;;;;;;;7372014;19;20138;-71
2022/10/26 07:32:36;;;;;;;0.30;0.30;;;;;;;;;;7385389;19;20627;-70
2022/10/26 07:35:01;;;;;;;1.02;1.02;;;;;;;;;;7388662;19;20569;-72
2022/10/26 07:37:27;;;;;;;0.30;0.30;;;;;;;;;;7367931;19;20581;-71
2022/10/26 07:39:52;;;;;;;0.30;0.30;;;;;;;;;;7386732;19;20141;-72
2022/10/26 07:42:17;;;;;;;0.30;0.30;;;;;;;;;;7378536;19;20140;-71
2022/10/26 07:44:43;;;;;;;0.30;0.30;;;;;;;;;;7366218;19;20198;-72
2022/10/26 07:47:08;;;;;;;0.30;0.30;;;;;;;;;;7366151;19;20489;-72
2022/10/26 07:49:33;;;;;;;0.30;0.30;;;;;;;;;;7370054;19;20137;-70
2022/10/26 07:51:58;;;;;;;0.30;0.30;;;;;;;;;;7381096;19;20779;-71
2022/10/26 07:54:24;;;;;;;0.30;0.30;;;;;;;;;;7389503;19;20600;-71
2022/10/26 07:56:49;;;;;;;0.30;0.30;;;;;;;;;;7388497;19;20157;-72
2022/10/26 07:59:16;;;;;;;0.30;0.30;;;;;;;;;;7389138;19;20176;-71
2022/10/26 08:01:41;;;;;;;0.40;0.40;;;;;;;;;;7387779;19;20513;-71
2022/10/26 08:04:06;;;;;;;0.30;0.30;;;;;;;;;;7389527;19;20132;-72
2022/10/26 08:06:32;;;;;;;0.30;0.30;;;;;;;;;;7387156;19;20158;-72
2022/10/26 08:08:57;;;;;;;0.30;0.30;;;;;;;;;;7389253;19;20174;-72
2022/10/26 08:11:24;;;;;;;0.40;0.40;;;;;;;;;;7390289;19;20462;-72
2022/10/26 08:13:53;;;;;;;0.30;0.30;;;;;;;;;;7388725;19;20144;-70
2022/10/26 08:16:18;;;;;;;0.30;0.30;;;;;;;;;;7386524;19;20621;-72
2022/10/26 08:18:46;;;;;;;0.30;0.30;;;;;;;;;;7389881;19;20588;-72
2022/10/26 08:21:12;;;;;;;0.30;0.30;;;;;;;;;;7389389;19;20136;-71
2022/10/26 08:23:38;;;;;;;0.30;0.30;;;;;;;;;;7390115;19;20188;-72
2022/10/26 08:26:04;;;;;;;0.20;0.20;;;;;;;;;;7386530;19;20168;-71
2022/10/26 08:28:29;;;;;;;0.22;0.22;;;;;;;;;;7387235;19;20144;-72
2022/10/26 08:30:58;;;;;;;0.30;0.30;;;;;;;;;;7386637;19;20378;-72
2022/10/26 08:33:24;;;;;;;0.73;0.73;;;;;;;;;;7390339;19;20491;-72
2022/10/26 08:35:57;;;;;;;0.60;0.60;;;;;;;;;;7385507;19;20938;-72
2022/10/26 08:38:22;;;;;;;0.25;0.25;;;;;;;;;;7384223;19;20113;-72
2022/10/26 08:40:47;;;;;;;0.65;0.65;;;;;;;;;;7385092;19;20536;-72
2022/10/26 08:43:38;;;;;;;0.20;0.20;;;;;;;;;;7376177;19;20121;-72
2022/10/26 08:46:40;;;;;;;0.32;0.32;;;;;;;;;;7381115;19;20408;-72
2022/10/26 08:49:24;;;;;;;0.25;0.25;;;;;;;;;;7369177;19;20631;-70
2022/10/26 08:51:53;;;;;;;0.30;0.30;;;;;;;;;;7370192;19;20140;-70
2022/10/26 08:54:40;;;;;;;0.30;0.30;;;;;;;;;;7383111;19;20148;-72
2022/10/26 08:57:30;;;;;;;0.40;0.40;;;;;;;;;;7380697;19;20161;-72
2022/10/26 08:59:55;;;;;;;0.30;0.30;;;;;;;;;;7374034;19;20193;-72
2022/10/26 09:02:21;;;;;;;0.40;0.40;;;;;;;;;;7366204;19;20140;-72
2022/10/26 09:04:46;;;;;;;0.68;0.68;;;;;;;;;;7376681;19;20161;-72
2022/10/26 09:07:14;;;;;;;0.30;0.30;;;;;;;;;;7380569;19;20140;-70
2022/10/26 09:09:54;;;;;;;0.30;0.30;;;;;;;;;;7377815;19;20125;-70
2022/10/26 09:12:35;;;;;;;0.40;0.40;;;;;;;;;;7383640;19;20200;-72
2022/10/26 09:15:17;;;;;;;0.30;0.30;;;;;;;;;;7384593;19;20669;-72
2022/10/26 09:18:07;;;;;;;0.45;0.45;;;;;;;;;;7382409;19;20591;-72
2022/10/26 09:20:41;;;;;;;0.60;0.60;;;;;;;;;;7380901;19;20587;-72
2022/10/26 09:23:06;;;;;;;0.30;0.30;;;;;;;;;;7381154;19;20162;-72
2022/10/26 09:25:39;;;;;;;0.30;0.30;;;;;;;;;;7381478;19;20145;-72
2022/10/26 09:28:07;;;;;;;0.20;0.20;;;;;;;;;;7380345;19;20129;-72
2022/10/26 09:30:34;;;;;;;0.30;0.30;;;;;;;;;;7375941;19;20141;-72
2022/10/26 09:33:03;;;;;;;0.30;0.30;;;;;;;;;;7379298;19;20124;-73
2022/10/26 09:35:42;;;;;;;0.20;0.20;;;;;;;;;;7376008;19;20181;-72
2022/10/26 09:38:22;;;;;;;0.28;0.28;;;;;;;;;;7374559;19;20482;-71
2022/10/26 09:40:55;;;;;;;1.05;1.05;;;;;;;;;;7363393;19;20144;-71
2022/10/26 09:43:39;;;;;;;0.30;0.30;;;;;;;;;;7378027;19;20128;-72
2022/10/26 09:46:04;;;;;;;0.30;0.30;;;;;;;;;;7368367;19;20639;-70
2022/10/26 09:48:47;;;;;;;0.30;0.30;;;;;;;;;;7382395;19;20149;-72
2022/10/26 09:51:15;;;;;;;0.30;0.30;;;;;;;;;;7373477;19;20125;-71
2022/10/26 09:53:40;;;;;;;0.30;0.30;;;;;;;;;;7380128;19;20129;-71
2022/10/26 09:56:11;;;;;;;0.45;0.45;;;;;;;;;;7381594;19;20183;-72
2022/10/26 09:59:00;;;;;;;0.30;0.30;;;;;;;;;;7382034;19;20140;-72
2022/10/26 10:01:26;;;;;;;0.30;0.30;;;;;;;;;;7382334;19;20133;-72
2022/10/26 10:04:21;;;;;;;0.30;0.30;;;;;;;;;;7385129;19;20144;-71
2022/10/26 10:06:48;;;;;;;0.43;0.43;;;;;;;;;;7380518;19;20603;-72
2022/10/26 10:09:16;;;;;;;0.30;0.30;;;;;;;;;;7362403;19;20176;-71
2022/10/26 10:11:53;;;;;;;0.30;0.30;;;;;;;;;;7359947;19;20144;-71
2022/10/26 10:14:26;;;;;;;0.30;0.30;;;;;;;;;;7374227;19;20148;-72
2022/10/26 10:17:00;;;;;;;0.30;0.30;;;;;;;;;;7373238;19;20128;-70
2022/10/26 10:19:27;;;;;;;0.30;0.30;;;;;;;;;;7371449;19;20265;-72
2022/10/26 10:21:58;;;;;;;0.85;0.77;;;;;;;;;;7373022;19;20135;-72
2022/10/26 10:24:30;;;;;;;0.40;0.40;;;;;;;;;;7366645;19;20133;-72
2022/10/26 10:27:02;;;;;;;0.30;0.30;;;;;;;;;;7380685;19;20139;-72
2022/10/26 10:29:45;;;;;;;0.30;0.30;;;;;;;;;;7387660;19;20133;-73
2022/10/26 10:32:14;;;;;;;0.30;0.30;;;;;;;;;;7390735;19;20128;-72
2022/10/26 10:34:39;;;;;;;0.40;0.35;;;;;;;;;;7384731;19;20177;-72
2022/10/26 10:37:05;;;;;;;0.30;0.30;;;;;;;;;;7384537;19;20503;-72
2022/10/26 10:39:30;;;;;;;0.30;0.30;;;;;;;;;;7388120;19;20200;-71
2022/10/26 10:41:56;;;;;;;1.10;0.60;;;;;;;;;;7391045;19;20124;-71
2022/10/26 10:44:22;;;;;;;0.40;0.40;;;;;;;;;;7389068;19;20121;-71
2022/10/26 22:40:25;;;;;;;0.40;0.40;;;;;;;;;;7378480;19;20259;-73
2022/10/26 22:42:51;;;;;;;0.60;0.60;;;;;;;;;;7378532;19;20425;-73
2022/10/26 22:45:16;;;;;;;0.65;0.65;;;;;;;;;;7376395;19;20173;-72
2022/10/26 22:47:41;;;;;;;0.30;0.30;;;;;;;;;;7387998;19;20499;-73
2022/10/26 22:50:07;;;;;;;0.30;0.30;;;;;;;;;;7385941;19;20121;-72
2022/10/26 22:52:33;;;;;;;0.25;0.25;;;;;;;;;;7389531;19;20590;-73
2022/10/26 22:54:59;;;;;;;0.30;0.30;;;;;;;;;;7385650;19;20164;-71
2022/10/26 22:57:24;;;;;;;0.30;0.30;;;;;;;;;;7380510;19;20816;-73
2022/10/26 22:59:49;;;;;;;0.38;0.38;;;;;;;;;;7373549;19;20174;-71
2022/10/26 23:02:15;;;;;;;0.30;0.30;;;;;;;;;;7381722;19;20138;-72
2022/10/26 23:04:40;;;;;;;0.30;0.30;;;;;;;;;;7384773;19;20145;-72
2022/10/26 23:07:05;;;;;;;0.40;0.40;;;;;;;;;;7384835;19;20144;-72
2022/10/26 23:09:30;;;;;;;0.30;0.30;;;;;;;;;;7394568;19;20125;-73
2022/10/26 23:11:56;;;;;;;0.30;0.30;;;;;;;;;;7379904;19;20149;-72
2022/10/26 23:14:21;;;;;;;0.30;0.30;;;;;;;;;;7382535;19;20177;-72
2022/10/26 23:16:46;;;;;;;0.30;0.30;;;;;;;;;;7372466;19;20139;-73
2022/10/26 23:19:12;;;;;;;0.30;0.30;;;;;;;;;;7386966;19;20788;-73
2022/10/26 23:21:37;;;;;;;0.45;0.45;;;;;;;;;;7384510;19;20144;-73
2022/10/26 23:24:02;;;;;;;0.30;0.30;;;;;;;;;;7388012;19;20144;-73
2022/10/26 23:26:28;;;;;;;0.30;0.30;;;;;;;;;;7391089;19;20186;-71
2022/10/26 23:28:53;;;;;;;0.50;0.50;;;;;;;;;;7391641;19;20145;-73
2022/10/26 23:31:24;;;;;;;0.38;0.38;;;;;;;;;;7383122;19;20137;-72
2022/10/26 23:33:51;;;;;;;0.30;0.30;;;;;;;;;;7389049;19;20128;-73
2022/10/26 23:36:17;;;;;;;0.30;0.30;;;;;;;;;;7384924;19;20149;-71
2022/10/26 23:38:42;;;;;;;0.30;0.30;;;;;;;;;;7381754;19;20148;-71
2022/10/26 23:41:08;;;;;;;0.30;0.30;;;;;;;;;;7384892;19;20462;-72
2022/10/26 23:43:33;;;;;;;0.65;0.65;;;;;;;;;;7355942;19;21210;-72
2022/10/26 23:45:59;;;;;;;0.30;0.30;;;;;;;;;;7381156;19;20190;-71
2022/10/26 23:48:24;;;;;;;0.20;0.20;;;;;;;;;;7386330;19;20152;-74
2022/10/26 23:50:50;;;;;;;0.55;0.55;;;;;;;;;;7386851;19;20611;-72
2022/10/26 23:53:17;;;;;;;0.20;0.20;;;;;;;;;;7385919;19;20137;-71
2022/10/26 23:55:43;;;;;;;0.40;0.40;;;;;;;;;;7388572;19;20519;-73
2022/10/26 23:58:09;;;;;;;0.38;0.38;;;;;;;;;;7379402;19;20547;-72
